PWSweather.com
Personal Weather Stations
Station Observations
270882
Flassian, LimouxFR 11300

FlassianLimouxFR 11300

Lat: 43.071798, Lon: 2.217292

Elevation: 165

Station Type: Oregon WMR 200

http://www.meteolimoux.fr

High Low Average
Temperature 53.4°F11.9°F 28.4°F-2.0°F 37.9°F3.3°F
Dew Point 41.4°F5.2°F 23.9°F-4.5°F 30.0°F-1.1°F
Winds 8.1 mph -13.0 mph - Calm Calm 1.3 mph 2.1 mph
Wind Gusts 15.4 mph24.8 mph -- 2.9 mph4.7 mph
Humidity 86% 55% 74%
Pressure 30.10 in1019.30 in 29.96 in1014.60 in -
Precipitation 0.00 in0.00 in - -
Hour Temp Dew Point Humidity Winds Wind Gusts Pressure Precip Precip Rate Daily Precip Total
12:02 AM 32.4°F0.2°C 26.6°F-3.0°C 79% Calm Calm -- 30.07 in1018.3 mb - 0.00 in0.0 mm 0.04 in1.0 mm
12:07 AM 32.2°F0.1°C 26.4°F-3.1°C 79% Calm Calm -- 30.10 in1019.3 mb - 0.00 in0.0 mm 0.00 in0.0 mm
12:12 AM 32.0°F0.0°C 26.2°F-3.2°C 79% Calm Calm -- 30.10 in1019.3 mb - 0.00 in0.0 mm 0.00 in0.0 mm
12:17 AM 32.0°F0.0°C 26.2°F-3.2°C 79% Calm Calm -- 30.10 in1019.3 mb - 0.00 in0.0 mm 0.00 in0.0 mm
12:22 AM 31.8°F-0.1°C 26.1°F-3.3°C 79% Calm Calm -- 30.10 in1019.3 mb - 0.00 in0.0 mm 0.00 in0.0 mm
12:27 AM 31.8°F-0.1°C 26.1°F-3.3°C 79% Calm Calm -- 30.10 in1019.3 mb - 0.00 in0.0 mm 0.00 in0.0 mm
12:32 AM 31.6°F-0.2°C 25.9°F-3.4°C 79% Calm Calm -- 30.10 in1019.3 mb - 0.00 in0.0 mm 0.00 in0.0 mm
12:37 AM 31.5°F-0.3°C 25.7°F-3.5°C 79% Calm Calm -- 30.10 in1019.3 mb - 0.00 in0.0 mm 0.00 in0.0 mm
12:42 AM 31.5°F-0.3°C 25.7°F-3.5°C 79% Calm Calm -- 30.10 in1019.3 mb - 0.00 in0.0 mm 0.00 in0.0 mm
12:47 AM 31.3°F-0.4°C 25.5°F-3.6°C 79% Calm Calm -- 30.10 in1019.3 mb - 0.00 in0.0 mm 0.00 in0.0 mm
12:52 AM 31.1°F-0.5°C 25.3°F-3.7°C 79% Calm Calm -- 30.10 in1019.3 mb - 0.00 in0.0 mm 0.00 in0.0 mm
12:57 AM 31.1°F-0.5°C 25.3°F-3.7°C 79% Calm Calm -- 30.10 in1019.3 mb - 0.00 in0.0 mm 0.00 in0.0 mm
01:02 AM 30.9°F-0.6°C 25.2°F-3.8°C 79% Calm Calm -- 30.10 in1019.3 mb - 0.00 in0.0 mm 0.00 in0.0 mm
01:07 AM 30.9°F-0.6°C 25.2°F-3.8°C 79% Calm Calm -- 30.10 in1019.3 mb - 0.00 in0.0 mm 0.00 in0.0 mm
01:12 AM 30.7°F-0.7°C 25.0°F-3.9°C 79% Calm Calm -- 30.10 in1019.3 mb - 0.00 in0.0 mm 0.00 in0.0 mm
01:17 AM 30.6°F-0.8°C 24.8°F-4.0°C 79% Calm Calm -- 30.10 in1019.3 mb - 0.00 in0.0 mm 0.00 in0.0 mm
01:22 AM 30.7°F-0.7°C 25.0°F-3.9°C 79% Calm Calm -- 30.10 in1019.3 mb - 0.00 in0.0 mm 0.00 in0.0 mm
01:27 AM 30.6°F-0.8°C 24.8°F-4.0°C 79% Calm Calm -- 30.10 in1019.3 mb - 0.00 in0.0 mm 0.00 in0.0 mm
01:32 AM 30.6°F-0.8°C 24.8°F-4.0°C 79% Calm Calm -- 30.10 in1019.3 mb - 0.00 in0.0 mm 0.00 in0.0 mm
01:37 AM 30.7°F-0.7°C 25.3°F-3.7°C 80% Calm Calm -- 30.07 in1018.3 mb - 0.00 in0.0 mm 0.00 in0.0 mm
01:42 AM 30.9°F-0.6°C 25.5°F-3.6°C 80% Calm Calm -- 30.07 in1018.3 mb - 0.00 in0.0 mm 0.00 in0.0 mm
01:47 AM 31.1°F-0.5°C 25.7°F-3.5°C 80% Calm Calm -- 30.07 in1018.3 mb - 0.00 in0.0 mm 0.00 in0.0 mm
01:52 AM 31.3°F-0.4°C 26.1°F-3.3°C 81% Calm Calm -- 30.07 in1018.3 mb - 0.00 in0.0 mm 0.00 in0.0 mm
01:57 AM 31.3°F-0.4°C 26.1°F-3.3°C 81% Calm Calm -- 30.07 in1018.3 mb - 0.00 in0.0 mm 0.00 in0.0 mm
02:02 AM 31.1°F-0.5°C 25.9°F-3.4°C 81% Calm Calm -- 30.07 in1018.3 mb - 0.00 in0.0 mm 0.00 in0.0 mm
02:07 AM 31.1°F-0.5°C 25.9°F-3.4°C 81% Calm Calm -- 30.07 in1018.3 mb - 0.00 in0.0 mm 0.00 in0.0 mm
02:12 AM 31.1°F-0.5°C 25.9°F-3.4°C 81% Calm Calm -- 30.07 in1018.3 mb - 0.00 in0.0 mm 0.00 in0.0 mm
02:17 AM 31.1°F-0.5°C 25.9°F-3.4°C 81% Calm Calm -- 30.07 in1018.3 mb - 0.00 in0.0 mm 0.00 in0.0 mm
02:22 AM 31.1°F-0.5°C 25.9°F-3.4°C 81% 0.2 mph WSW0.3 kmh WSW 3.1 mph5.0 kmh 30.07 in1018.3 mb - 0.00 in0.0 mm 0.00 in0.0 mm
02:27 AM 31.1°F-0.5°C 26.2°F-3.2°C 82% Calm Calm -- 30.07 in1018.3 mb - 0.00 in0.0 mm 0.00 in0.0 mm
02:32 AM 31.1°F-0.5°C 26.2°F-3.2°C 82% Calm Calm -- 30.07 in1018.3 mb - 0.00 in0.0 mm 0.00 in0.0 mm
02:37 AM 31.1°F-0.5°C 25.9°F-3.4°C 81% 0.9 mph WSW1.4 kmh WSW 4.0 mph6.4 kmh 30.07 in1018.3 mb - 0.00 in0.0 mm 0.00 in0.0 mm
02:42 AM 30.9°F-0.6°C 26.1°F-3.3°C 82% Calm Calm 0.2 mph0.3 kmh 30.07 in1018.3 mb - 0.00 in0.0 mm 0.00 in0.0 mm
02:47 AM 30.9°F-0.6°C 26.1°F-3.3°C 82% Calm Calm -- 30.07 in1018.3 mb - 0.00 in0.0 mm 0.00 in0.0 mm
02:52 AM 30.7°F-0.7°C 25.9°F-3.4°C 82% Calm Calm -- 30.07 in1018.3 mb - 0.00 in0.0 mm 0.00 in0.0 mm
02:57 AM 30.7°F-0.7°C 25.9°F-3.4°C 82% 0.2 mph SW0.3 kmh SW 2.9 mph4.7 kmh 30.07 in1018.3 mb - 0.00 in0.0 mm 0.00 in0.0 mm
03:02 AM 30.6°F-0.8°C 25.7°F-3.5°C 82% 0.2 mph SW0.3 kmh SW 2.5 mph4.0 kmh 30.07 in1018.3 mb - 0.00 in0.0 mm 0.00 in0.0 mm
03:07 AM 30.7°F-0.7°C 26.2°F-3.2°C 83% 0.2 mph SW0.3 kmh SW 2.0 mph3.2 kmh 30.07 in1018.3 mb - 0.00 in0.0 mm 0.00 in0.0 mm
03:12 AM 30.7°F-0.7°C 26.2°F-3.2°C 83% Calm Calm -- 30.07 in1018.3 mb - 0.00 in0.0 mm 0.00 in0.0 mm
03:17 AM 30.7°F-0.7°C 26.4°F-3.1°C 84% Calm Calm -- 30.07 in1018.3 mb - 0.00 in0.0 mm 0.00 in0.0 mm
03:22 AM 30.6°F-0.8°C 26.2°F-3.2°C 84% Calm Calm -- 30.07 in1018.3 mb - 0.00 in0.0 mm 0.00 in0.0 mm
03:27 AM 30.4°F-0.9°C 25.9°F-3.4°C 83% 0.2 mph WSW0.3 kmh WSW 3.1 mph5.0 kmh 30.07 in1018.3 mb - 0.00 in0.0 mm 0.00 in0.0 mm
03:32 AM 30.4°F-0.9°C 25.9°F-3.4°C 83% 1.8 mph WSW2.9 kmh WSW 4.7 mph7.6 kmh 30.07 in1018.3 mb - 0.00 in0.0 mm 0.00 in0.0 mm
03:37 AM 30.2°F-1.0°C 25.7°F-3.5°C 83% 2.2 mph SW3.5 kmh SW 5.6 mph9.0 kmh 30.07 in1018.3 mb - 0.00 in0.0 mm 0.00 in0.0 mm
03:42 AM 30.2°F-1.0°C 25.7°F-3.5°C 83% Calm Calm 1.8 mph2.9 kmh 30.07 in1018.3 mb - 0.00 in0.0 mm 0.00 in0.0 mm
03:47 AM 30.2°F-1.0°C 25.7°F-3.5°C 83% 0.2 mph WSW0.3 kmh WSW 2.0 mph3.2 kmh 30.07 in1018.3 mb - 0.00 in0.0 mm 0.00 in0.0 mm
03:52 AM 30.2°F-1.0°C 25.7°F-3.5°C 83% 0.7 mph SW1.1 kmh SW 3.6 mph5.8 kmh 30.07 in1018.3 mb - 0.00 in0.0 mm 0.00 in0.0 mm
03:57 AM 30.0°F-1.1°C 25.5°F-3.6°C 83% Calm Calm -- 30.07 in1018.3 mb - 0.00 in0.0 mm 0.00 in0.0 mm
04:02 AM 30.0°F-1.1°C 25.5°F-3.6°C 83% Calm Calm -- 30.07 in1018.3 mb - 0.00 in0.0 mm 0.00 in0.0 mm
04:07 AM 29.8°F-1.2°C 25.3°F-3.7°C 83% Calm Calm -- 30.04 in1017.3 mb - 0.00 in0.0 mm 0.00 in0.0 mm
04:12 AM 29.8°F-1.2°C 25.3°F-3.7°C 83% Calm Calm -- 30.04 in1017.3 mb - 0.00 in0.0 mm 0.00 in0.0 mm
04:17 AM 29.8°F-1.2°C 25.3°F-3.7°C 83% Calm Calm -- 30.04 in1017.3 mb - 0.00 in0.0 mm 0.00 in0.0 mm
04:22 AM 29.8°F-1.2°C 25.3°F-3.7°C 83% Calm Calm -- 30.04 in1017.3 mb - 0.00 in0.0 mm 0.00 in0.0 mm
04:27 AM 29.8°F-1.2°C 25.5°F-3.6°C 84% Calm Calm -- 30.04 in1017.3 mb - 0.00 in0.0 mm 0.00 in0.0 mm
04:32 AM 29.7°F-1.3°C 25.2°F-3.8°C 83% Calm Calm -- 30.04 in1017.3 mb - 0.00 in0.0 mm 0.00 in0.0 mm
04:37 AM 29.7°F-1.3°C 25.2°F-3.8°C 83% 0.9 mph WSW1.4 kmh WSW 3.8 mph6.1 kmh 30.04 in1017.3 mb - 0.00 in0.0 mm 0.00 in0.0 mm
04:42 AM 29.7°F-1.3°C 25.2°F-3.8°C 83% 1.3 mph WSW2.1 kmh WSW 1.3 mph2.1 kmh 30.04 in1017.3 mb - 0.00 in0.0 mm 0.00 in0.0 mm
04:47 AM 29.5°F-1.4°C 25.0°F-3.9°C 83% Calm Calm 1.8 mph2.9 kmh 30.04 in1017.3 mb - 0.00 in0.0 mm 0.00 in0.0 mm
04:52 AM 29.5°F-1.4°C 25.0°F-3.9°C 83% Calm Calm -- 30.04 in1017.3 mb - 0.00 in0.0 mm 0.00 in0.0 mm
04:57 AM 29.5°F-1.4°C 25.0°F-3.9°C 83% 0.4 mph WSW0.6 kmh WSW 2.9 mph4.7 kmh 30.04 in1017.3 mb - 0.00 in0.0 mm 0.00 in0.0 mm
05:02 AM 29.5°F-1.4°C 25.0°F-3.9°C 83% 0.2 mph WSW0.3 kmh WSW 2.7 mph4.3 kmh 30.04 in1017.3 mb - 0.00 in0.0 mm 0.00 in0.0 mm
05:07 AM 29.5°F-1.4°C 25.0°F-3.9°C 83% Calm Calm -- 30.04 in1017.3 mb - 0.00 in0.0 mm 0.00 in0.0 mm
05:12 AM 29.5°F-1.4°C 25.3°F-3.7°C 84% Calm Calm -- 30.04 in1017.3 mb - 0.00 in0.0 mm 0.00 in0.0 mm
05:17 AM 29.5°F-1.4°C 25.3°F-3.7°C 84% 0.4 mph WSW0.6 kmh WSW 4.5 mph7.2 kmh 30.04 in1017.3 mb - 0.00 in0.0 mm 0.00 in0.0 mm
05:22 AM 29.5°F-1.4°C 25.3°F-3.7°C 84% 2.2 mph WSW3.5 kmh WSW 4.7 mph7.6 kmh 30.01 in1016.3 mb - 0.00 in0.0 mm 0.00 in0.0 mm
05:27 AM 29.5°F-1.4°C 25.3°F-3.7°C 84% 0.9 mph WSW1.4 kmh WSW 3.6 mph5.8 kmh 30.01 in1016.3 mb - 0.00 in0.0 mm 0.00 in0.0 mm
05:32 AM 29.5°F-1.4°C 25.3°F-3.7°C 84% 0.4 mph WSW0.6 kmh WSW 3.8 mph6.1 kmh 30.01 in1016.3 mb - 0.00 in0.0 mm 0.00 in0.0 mm
05:37 AM 29.3°F-1.5°C 25.2°F-3.8°C 84% 0.2 mph SW0.3 kmh SW 3.4 mph5.5 kmh 30.01 in1016.3 mb - 0.00 in0.0 mm 0.00 in0.0 mm
05:42 AM 29.3°F-1.5°C 25.2°F-3.8°C 84% Calm Calm -- 30.01 in1016.3 mb - 0.00 in0.0 mm 0.00 in0.0 mm
05:47 AM 29.3°F-1.5°C 25.2°F-3.8°C 84% Calm Calm -- 30.01 in1016.3 mb - 0.00 in0.0 mm 0.00 in0.0 mm
05:52 AM 29.3°F-1.5°C 25.2°F-3.8°C 84% Calm Calm -- 30.01 in1016.3 mb - 0.00 in0.0 mm 0.00 in0.0 mm
05:57 AM 29.1°F-1.6°C 25.0°F-3.9°C 84% Calm Calm -- 30.01 in1016.3 mb - 0.00 in0.0 mm 0.00 in0.0 mm
06:02 AM 29.1°F-1.6°C 25.0°F-3.9°C 84% Calm Calm -- 30.01 in1016.3 mb - 0.00 in0.0 mm 0.00 in0.0 mm
06:07 AM 29.3°F-1.5°C 25.2°F-3.8°C 84% Calm Calm -- 30.04 in1017.3 mb - 0.00 in0.0 mm 0.00 in0.0 mm
06:12 AM 29.3°F-1.5°C 25.2°F-3.8°C 84% Calm Calm -- 30.04 in1017.3 mb - 0.00 in0.0 mm 0.00 in0.0 mm
06:17 AM 29.3°F-1.5°C 25.2°F-3.8°C 84% 0.2 mph WSW0.3 kmh WSW 4.0 mph6.4 kmh 30.04 in1017.3 mb - 0.00 in0.0 mm 0.00 in0.0 mm
06:22 AM 29.1°F-1.6°C 25.0°F-3.9°C 84% 0.9 mph WSW1.4 kmh WSW 0.9 mph1.4 kmh 30.04 in1017.3 mb - 0.00 in0.0 mm 0.00 in0.0 mm
06:27 AM 28.9°F-1.7°C 24.8°F-4.0°C 84% 2.5 mph SW4.0 kmh SW 4.3 mph6.9 kmh 30.04 in1017.3 mb - 0.00 in0.0 mm 0.00 in0.0 mm
06:32 AM 28.8°F-1.8°C 24.6°F-4.1°C 84% 1.8 mph SW2.9 kmh SW 4.0 mph6.4 kmh 30.04 in1017.3 mb - 0.00 in0.0 mm 0.00 in0.0 mm
06:37 AM 28.8°F-1.8°C 24.3°F-4.3°C 83% 0.2 mph WSW0.3 kmh WSW 1.6 mph2.6 kmh 30.04 in1017.3 mb - 0.00 in0.0 mm 0.00 in0.0 mm
06:42 AM 28.8°F-1.8°C 24.3°F-4.3°C 83% Calm Calm -- 30.04 in1017.3 mb - 0.00 in0.0 mm 0.00 in0.0 mm
06:47 AM 28.6°F-1.9°C 24.4°F-4.2°C 84% Calm Calm -- 30.04 in1017.3 mb - 0.00 in0.0 mm 0.00 in0.0 mm
06:52 AM 28.6°F-1.9°C 24.4°F-4.2°C 84% Calm Calm -- 30.04 in1017.3 mb - 0.00 in0.0 mm 0.00 in0.0 mm
06:57 AM 28.6°F-1.9°C 24.1°F-4.4°C 83% Calm Calm -- 30.04 in1017.3 mb - 0.00 in0.0 mm 0.00 in0.0 mm
07:02 AM 28.4°F-2.0°C 23.9°F-4.5°C 83% Calm Calm -- 30.04 in1017.3 mb - 0.00 in0.0 mm 0.00 in0.0 mm
07:07 AM 28.4°F-2.0°C 23.9°F-4.5°C 83% Calm Calm -- 30.04 in1017.3 mb - 0.00 in0.0 mm 0.00 in0.0 mm
07:12 AM 28.4°F-2.0°C 23.9°F-4.5°C 83% Calm Calm -- 30.04 in1017.3 mb - 0.00 in0.0 mm 0.00 in0.0 mm
07:17 AM 28.6°F-1.9°C 24.4°F-4.2°C 84% Calm Calm -- 30.04 in1017.3 mb - 0.00 in0.0 mm 0.00 in0.0 mm
07:22 AM 28.6°F-1.9°C 24.4°F-4.2°C 84% Calm Calm -- 30.04 in1017.3 mb - 0.00 in0.0 mm 0.00 in0.0 mm
07:27 AM 28.6°F-1.9°C 24.4°F-4.2°C 84% Calm Calm -- 30.04 in1017.3 mb - 0.00 in0.0 mm 0.00 in0.0 mm
07:32 AM 28.8°F-1.8°C 24.6°F-4.1°C 84% 0.7 mph WSW1.1 kmh WSW 3.1 mph5.0 kmh 30.04 in1017.3 mb - 0.00 in0.0 mm 0.00 in0.0 mm
07:37 AM 28.8°F-1.8°C 24.6°F-4.1°C 84% 0.7 mph WSW1.1 kmh WSW 2.9 mph4.7 kmh 30.04 in1017.3 mb - 0.00 in0.0 mm 0.00 in0.0 mm
07:42 AM 28.9°F-1.7°C 24.8°F-4.0°C 84% 0.7 mph SW1.1 kmh SW 3.1 mph5.0 kmh 30.04 in1017.3 mb - 0.00 in0.0 mm 0.00 in0.0 mm
07:47 AM 28.9°F-1.7°C 24.8°F-4.0°C 84% 2.0 mph WSW3.2 kmh WSW 3.6 mph5.8 kmh 30.04 in1017.3 mb - 0.00 in0.0 mm 0.00 in0.0 mm
07:52 AM 28.8°F-1.8°C 24.6°F-4.1°C 84% 0.4 mph WSW0.6 kmh WSW 3.8 mph6.1 kmh 30.04 in1017.3 mb - 0.00 in0.0 mm 0.00 in0.0 mm
07:57 AM 28.6°F-1.9°C 24.4°F-4.2°C 84% Calm Calm -- 30.04 in1017.3 mb - 0.00 in0.0 mm 0.00 in0.0 mm
08:02 AM 28.6°F-1.9°C 24.4°F-4.2°C 84% Calm Calm -- 30.04 in1017.3 mb - 0.00 in0.0 mm 0.00 in0.0 mm
08:07 AM 28.4°F-2.0°C 24.3°F-4.3°C 84% Calm Calm -- 30.04 in1017.3 mb - 0.00 in0.0 mm 0.00 in0.0 mm
08:12 AM 28.4°F-2.0°C 24.3°F-4.3°C 84% Calm Calm -- 30.04 in1017.3 mb - 0.00 in0.0 mm 0.00 in0.0 mm
08:17 AM 28.4°F-2.0°C 24.3°F-4.3°C 84% Calm Calm -- 30.04 in1017.3 mb - 0.00 in0.0 mm 0.00 in0.0 mm
08:22 AM 28.4°F-2.0°C 24.3°F-4.3°C 84% Calm Calm -- 30.04 in1017.3 mb - 0.00 in0.0 mm 0.00 in0.0 mm
08:27 AM 28.4°F-2.0°C 24.3°F-4.3°C 84% Calm Calm -- 30.04 in1017.3 mb - 0.00 in0.0 mm 0.00 in0.0 mm
08:32 AM 28.4°F-2.0°C 24.3°F-4.3°C 84% Calm Calm -- 30.04 in1017.3 mb - 0.00 in0.0 mm 0.00 in0.0 mm
08:37 AM 28.4°F-2.0°C 23.9°F-4.5°C 83% Calm Calm -- 30.04 in1017.3 mb - 0.00 in0.0 mm 0.00 in0.0 mm
08:42 AM 28.4°F-2.0°C 23.9°F-4.5°C 83% Calm Calm -- 30.04 in1017.3 mb - 0.00 in0.0 mm 0.00 in0.0 mm
08:47 AM 28.4°F-2.0°C 23.9°F-4.5°C 83% Calm Calm -- 30.04 in1017.3 mb - 0.00 in0.0 mm 0.00 in0.0 mm
08:52 AM 28.6°F-1.9°C 24.4°F-4.2°C 84% Calm Calm -- 30.04 in1017.3 mb - 0.00 in0.0 mm 0.00 in0.0 mm
08:57 AM 28.9°F-1.7°C 24.8°F-4.0°C 84% Calm Calm -- 30.04 in1017.3 mb - 0.00 in0.0 mm 0.00 in0.0 mm
09:02 AM 29.3°F-1.5°C 25.2°F-3.8°C 84% Calm Calm -- 30.04 in1017.3 mb - 0.00 in0.0 mm 0.00 in0.0 mm
09:07 AM 29.5°F-1.4°C 25.5°F-3.6°C 85% Calm Calm -- 30.04 in1017.3 mb - 0.00 in0.0 mm 0.00 in0.0 mm
09:12 AM 29.8°F-1.2°C 25.9°F-3.4°C 85% Calm Calm -- 30.04 in1017.3 mb - 0.00 in0.0 mm 0.00 in0.0 mm
09:17 AM 30.2°F-1.0°C 26.2°F-3.2°C 85% Calm Calm -- 30.04 in1017.3 mb - 0.00 in0.0 mm 0.00 in0.0 mm
09:22 AM 30.7°F-0.7°C 26.8°F-2.9°C 85% Calm Calm -- 30.04 in1017.3 mb - 0.00 in0.0 mm 0.00 in0.0 mm
09:27 AM 31.3°F-0.4°C 27.3°F-2.6°C 85% Calm Calm -- 30.04 in1017.3 mb - 0.00 in0.0 mm 0.00 in0.0 mm
09:32 AM 31.6°F-0.2°C 27.9°F-2.3°C 86% Calm Calm -- 30.04 in1017.3 mb - 0.00 in0.0 mm 0.00 in0.0 mm
09:37 AM 32.0°F0.0°C 28.2°F-2.1°C 86% Calm Calm -- 30.01 in1016.3 mb - 0.00 in0.0 mm 0.00 in0.0 mm
09:42 AM 32.5°F0.3°C 28.8°F-1.8°C 86% 2.0 mph SW3.2 kmh SW 4.0 mph6.4 kmh 30.01 in1016.3 mb - 0.00 in0.0 mm 0.00 in0.0 mm
09:47 AM 32.9°F0.5°C 29.1°F-1.6°C 86% 0.2 mph SW0.3 kmh SW 2.7 mph4.3 kmh 30.01 in1016.3 mb - 0.00 in0.0 mm 0.00 in0.0 mm
09:52 AM 33.4°F0.8°C 29.7°F-1.3°C 86% 1.8 mph SSW2.9 kmh SSW 4.9 mph7.9 kmh 30.01 in1016.3 mb - 0.00 in0.0 mm 0.00 in0.0 mm
09:57 AM 34.0°F1.1°C 30.2°F-1.0°C 86% 0.9 mph SSW1.4 kmh SSW 3.8 mph6.1 kmh 30.01 in1016.3 mb - 0.00 in0.0 mm 0.00 in0.0 mm
10:02 AM 34.5°F1.4°C 30.7°F-0.7°C 86% 1.1 mph SW1.8 kmh SW 1.1 mph1.8 kmh 30.01 in1016.3 mb - 0.00 in0.0 mm 0.00 in0.0 mm
10:07 AM 34.7°F1.5°C 30.9°F-0.6°C 86% 0.9 mph SSW1.4 kmh SSW 0.9 mph1.4 kmh 30.01 in1016.3 mb - 0.00 in0.0 mm 0.00 in0.0 mm
10:12 AM 35.1°F1.7°C 31.1°F-0.5°C 85% 1.1 mph SSW1.8 kmh SSW 4.7 mph7.6 kmh 30.01 in1016.3 mb - 0.00 in0.0 mm 0.00 in0.0 mm
10:17 AM 35.2°F1.8°C 31.3°F-0.4°C 85% 0.7 mph SSW1.1 kmh SSW 3.6 mph5.8 kmh 30.01 in1016.3 mb - 0.00 in0.0 mm 0.00 in0.0 mm
10:22 AM 35.8°F2.1°C 31.6°F-0.2°C 85% 0.4 mph SW0.6 kmh SW 0.4 mph0.6 kmh 30.01 in1016.3 mb - 0.00 in0.0 mm 0.00 in0.0 mm
10:27 AM 36.5°F2.5°C 32.4°F0.2°C 85% 0.7 mph S1.1 kmh S 4.0 mph6.4 kmh 30.01 in1016.3 mb - 0.00 in0.0 mm 0.00 in0.0 mm
10:32 AM 36.9°F2.7°C 32.7°F0.4°C 85% Calm Calm -- 30.01 in1016.3 mb - 0.00 in0.0 mm 0.00 in0.0 mm
10:37 AM 37.4°F3.0°C 33.3°F0.7°C 85% 0.7 mph S1.1 kmh S 2.9 mph4.7 kmh 30.04 in1017.3 mb - 0.00 in0.0 mm 0.00 in0.0 mm
10:42 AM 37.9°F3.3°C 33.6°F0.9°C 84% 0.9 mph SSW1.4 kmh SSW 3.6 mph5.8 kmh 30.04 in1017.3 mb - 0.00 in0.0 mm 0.00 in0.0 mm
10:47 AM 38.3°F3.5°C 34.0°F1.1°C 84% Calm Calm -- 30.04 in1017.3 mb - 0.00 in0.0 mm 0.00 in0.0 mm
10:52 AM 39.0°F3.9°C 34.3°F1.3°C 83% Calm Calm -- 30.04 in1017.3 mb - 0.00 in0.0 mm 0.00 in0.0 mm
10:57 AM 39.7°F4.3°C 35.2°F1.8°C 84% Calm Calm -- 30.04 in1017.3 mb - 0.00 in0.0 mm 0.00 in0.0 mm
11:02 AM 40.5°F4.7°C 36.0°F2.2°C 84% 0.2 mph SW0.3 kmh SW 1.6 mph2.6 kmh 30.04 in1017.3 mb - 0.00 in0.0 mm 0.00 in0.0 mm
11:07 AM 41.0°F5.0°C 36.5°F2.5°C 84% Calm Calm -- 30.04 in1017.3 mb - 0.00 in0.0 mm 0.00 in0.0 mm
11:12 AM 41.7°F5.4°C 37.0°F2.8°C 83% Calm Calm 1.8 mph2.9 kmh 30.04 in1017.3 mb - 0.00 in0.0 mm 0.00 in0.0 mm
11:17 AM 42.6°F5.9°C 37.8°F3.2°C 83% Calm Calm -- 30.04 in1017.3 mb - 0.00 in0.0 mm 0.00 in0.0 mm
11:22 AM 43.7°F6.5°C 38.8°F3.8°C 83% Calm Calm -- 30.01 in1016.3 mb - 0.00 in0.0 mm 0.00 in0.0 mm
11:27 AM 44.2°F6.8°C 39.0°F3.9°C 82% Calm Calm -- 30.01 in1016.3 mb - 0.00 in0.0 mm 0.00 in0.0 mm
11:32 AM 44.8°F7.1°C 39.4°F4.1°C 81% Calm Calm -- 30.01 in1016.3 mb - 0.00 in0.0 mm 0.00 in0.0 mm
11:37 AM 45.5°F7.5°C 39.7°F4.3°C 80% Calm Calm -- 30.01 in1016.3 mb - 0.00 in0.0 mm 0.00 in0.0 mm
11:42 AM 46.2°F7.9°C 40.1°F4.5°C 79% 0.2 mph S0.3 kmh S 1.8 mph2.9 kmh 30.01 in1016.3 mb - 0.00 in0.0 mm 0.00 in0.0 mm
11:47 AM 46.9°F8.3°C 40.8°F4.9°C 79% 0.2 mph SSW0.3 kmh SSW 2.2 mph3.5 kmh 30.01 in1016.3 mb - 0.00 in0.0 mm 0.00 in0.0 mm
11:52 AM 47.5°F8.6°C 41.4°F5.2°C 79% Calm Calm -- 30.04 in1017.3 mb - 0.00 in0.0 mm 0.00 in0.0 mm
11:57 AM 47.8°F8.8°C 41.0°F5.0°C 77% 0.4 mph NE0.6 kmh NE 3.1 mph5.0 kmh 30.04 in1017.3 mb - 0.00 in0.0 mm 0.00 in0.0 mm
12:02 PM 47.8°F8.8°C 38.1°F3.4°C 69% Calm Calm -- 30.04 in1017.3 mb - 0.00 in0.0 mm 0.00 in0.0 mm
12:07 PM 48.0°F8.9°C 38.3°F3.5°C 69% 2.0 mph NW3.2 kmh NW 6.3 mph10.1 kmh 30.04 in1017.3 mb - 0.00 in0.0 mm 0.00 in0.0 mm
12:12 PM 48.2°F9.0°C 37.4°F3.0°C 66% 2.0 mph NE3.2 kmh NE 8.7 mph14.0 kmh 30.04 in1017.3 mb - 0.00 in0.0 mm 0.00 in0.0 mm
12:17 PM 48.2°F9.0°C 37.0°F2.8°C 65% 2.7 mph N4.3 kmh N 9.2 mph14.8 kmh 30.04 in1017.3 mb - 0.00 in0.0 mm 0.00 in0.0 mm
12:22 PM 48.6°F9.2°C 37.4°F3.0°C 65% 2.7 mph NNE4.3 kmh NNE 10.5 mph16.9 kmh 30.01 in1016.3 mb - 0.00 in0.0 mm 0.00 in0.0 mm
12:27 PM 48.6°F9.2°C 37.0°F2.8°C 64% 4.9 mph NNE7.9 kmh NNE 11.2 mph18.0 kmh 30.01 in1016.3 mb - 0.00 in0.0 mm 0.00 in0.0 mm
12:32 PM 48.9°F9.4°C 37.2°F2.9°C 64% 7.4 mph NNE11.9 kmh NNE 7.4 mph11.9 kmh 30.01 in1016.3 mb - 0.00 in0.0 mm 0.00 in0.0 mm
12:37 PM 49.1°F9.5°C 37.0°F2.8°C 63% 7.4 mph NNE11.9 kmh NNE 11.0 mph17.7 kmh 30.01 in1016.3 mb - 0.00 in0.0 mm 0.00 in0.0 mm
12:42 PM 49.3°F9.6°C 37.2°F2.9°C 63% 6.5 mph NNE10.5 kmh NNE 11.6 mph18.7 kmh 30.01 in1016.3 mb - 0.00 in0.0 mm 0.00 in0.0 mm
12:47 PM 49.5°F9.7°C 37.0°F2.8°C 62% 7.6 mph NE12.2 kmh NE 13.4 mph21.6 kmh 30.01 in1016.3 mb - 0.00 in0.0 mm 0.00 in0.0 mm
12:52 PM 49.6°F9.8°C 37.2°F2.9°C 62% 7.4 mph NNE11.9 kmh NNE 13.0 mph20.9 kmh 29.99 in1015.6 mb - 0.00 in0.0 mm 0.00 in0.0 mm
12:57 PM 50.0°F10.0°C 37.6°F3.1°C 62% 7.8 mph NE12.6 kmh NE 7.8 mph12.6 kmh 29.99 in1015.6 mb - 0.00 in0.0 mm 0.00 in0.0 mm
01:02 PM 50.4°F10.2°C 37.9°F3.3°C 62% 7.2 mph NNE11.6 kmh NNE 11.9 mph19.2 kmh 29.99 in1015.6 mb - 0.00 in0.0 mm 0.00 in0.0 mm
01:07 PM 50.7°F10.4°C 37.8°F3.2°C 61% 6.7 mph E10.8 kmh E 12.5 mph20.1 kmh 29.99 in1015.6 mb - 0.00 in0.0 mm 0.00 in0.0 mm
01:12 PM 50.7°F10.4°C 37.8°F3.2°C 61% 5.8 mph NE9.3 kmh NE 11.0 mph17.7 kmh 29.99 in1015.6 mb - 0.00 in0.0 mm 0.00 in0.0 mm
01:17 PM 50.9°F10.5°C 37.9°F3.3°C 61% 3.4 mph ENE5.5 kmh ENE 10.3 mph16.6 kmh 29.99 in1015.6 mb - 0.00 in0.0 mm 0.00 in0.0 mm
01:22 PM 50.9°F10.5°C 37.6°F3.1°C 60% 4.0 mph NNE6.4 kmh NNE 10.7 mph17.2 kmh 29.96 in1014.6 mb - 0.00 in0.0 mm 0.00 in0.0 mm
01:27 PM 51.1°F10.6°C 37.8°F3.2°C 60% 8.1 mph NNE13.0 kmh NNE 13.0 mph20.9 kmh 29.96 in1014.6 mb - 0.00 in0.0 mm 0.00 in0.0 mm
01:32 PM 51.4°F10.8°C 38.1°F3.4°C 60% 8.1 mph NNE13.0 kmh NNE 12.8 mph20.6 kmh 29.96 in1014.6 mb - 0.00 in0.0 mm 0.00 in0.0 mm
01:37 PM 51.4°F10.8°C 38.1°F3.4°C 60% 5.1 mph NE8.2 kmh NE 11.0 mph17.7 kmh 29.99 in1015.6 mb - 0.00 in0.0 mm 0.00 in0.0 mm
01:42 PM 51.6°F10.9°C 37.8°F3.2°C 59% 4.3 mph NE6.9 kmh NE 12.5 mph20.1 kmh 29.99 in1015.6 mb - 0.00 in0.0 mm 0.00 in0.0 mm
01:47 PM 51.8°F11.0°C 37.9°F3.3°C 59% 7.4 mph NE11.9 kmh NE 12.3 mph19.8 kmh 29.99 in1015.6 mb - 0.00 in0.0 mm 0.00 in0.0 mm
01:52 PM 52.0°F11.1°C 38.1°F3.4°C 59% 7.2 mph NE11.6 kmh NE 12.1 mph19.5 kmh 29.99 in1015.6 mb - 0.00 in0.0 mm 0.00 in0.0 mm
01:57 PM 52.2°F11.2°C 38.3°F3.5°C 59% 4.7 mph NE7.6 kmh NE 12.3 mph19.8 kmh 29.99 in1015.6 mb - 0.00 in0.0 mm 0.00 in0.0 mm
02:02 PM 52.2°F11.2°C 37.9°F3.3°C 58% 4.7 mph N7.6 kmh N 11.6 mph18.7 kmh 29.99 in1015.6 mb - 0.00 in0.0 mm 0.00 in0.0 mm
02:07 PM 52.2°F11.2°C 37.9°F3.3°C 58% 3.1 mph NNE5.0 kmh NNE 10.7 mph17.2 kmh 29.99 in1015.6 mb - 0.00 in0.0 mm 0.00 in0.0 mm
02:12 PM 52.2°F11.2°C 37.9°F3.3°C 58% 1.1 mph N1.8 kmh N 9.4 mph15.1 kmh 29.99 in1015.6 mb - 0.00 in0.0 mm 0.00 in0.0 mm
02:17 PM 52.2°F11.2°C 37.4°F3.0°C 57% 2.0 mph N3.2 kmh N 13.0 mph20.9 kmh 29.99 in1015.6 mb - 0.00 in0.0 mm 0.00 in0.0 mm
02:22 PM 52.3°F11.3°C 37.6°F3.1°C 57% 3.1 mph N5.0 kmh N 3.1 mph5.0 kmh 29.99 in1015.6 mb - 0.00 in0.0 mm 0.00 in0.0 mm
02:27 PM 52.3°F11.3°C 37.9°F3.3°C 58% 5.6 mph N9.0 kmh N 15.4 mph24.8 kmh 29.99 in1015.6 mb - 0.00 in0.0 mm 0.00 in0.0 mm
02:32 PM 52.7°F11.5°C 38.3°F3.5°C 58% 2.9 mph N4.7 kmh N 10.3 mph16.6 kmh 29.99 in1015.6 mb - 0.00 in0.0 mm 0.00 in0.0 mm
02:37 PM 52.7°F11.5°C 37.9°F3.3°C 57% 3.1 mph N5.0 kmh N 9.8 mph15.8 kmh 29.99 in1015.6 mb - 0.00 in0.0 mm 0.00 in0.0 mm
02:42 PM 52.7°F11.5°C 37.9°F3.3°C 57% 5.6 mph ENE9.0 kmh ENE 12.5 mph20.1 kmh 29.99 in1015.6 mb - 0.00 in0.0 mm 0.00 in0.0 mm
02:47 PM 52.9°F11.6°C 38.1°F3.4°C 57% 3.8 mph NE6.1 kmh NE 11.4 mph18.3 kmh 29.99 in1015.6 mb - 0.00 in0.0 mm 0.00 in0.0 mm
02:52 PM 52.9°F11.6°C 38.1°F3.4°C 57% 3.6 mph N5.8 kmh N 9.6 mph15.4 kmh 29.99 in1015.6 mb - 0.00 in0.0 mm 0.00 in0.0 mm
02:57 PM 53.1°F11.7°C 38.3°F3.5°C 57% 3.6 mph N5.8 kmh N 12.8 mph20.6 kmh 29.99 in1015.6 mb - 0.00 in0.0 mm 0.00 in0.0 mm
03:02 PM 53.1°F11.7°C 38.3°F3.5°C 57% 4.0 mph NE6.4 kmh NE 9.6 mph15.4 kmh 29.99 in1015.6 mb - 0.00 in0.0 mm 0.00 in0.0 mm
03:07 PM 53.2°F11.8°C 37.9°F3.3°C 56% 5.4 mph ENE8.7 kmh ENE 11.4 mph18.3 kmh 30.01 in1016.3 mb - 0.00 in0.0 mm 0.00 in0.0 mm
03:12 PM 53.2°F11.8°C 37.9°F3.3°C 56% 2.9 mph N4.7 kmh N 9.6 mph15.4 kmh 30.01 in1016.3 mb - 0.00 in0.0 mm 0.00 in0.0 mm
03:17 PM 53.2°F11.8°C 37.9°F3.3°C 56% 5.4 mph NW8.7 kmh NW 11.0 mph17.7 kmh 30.01 in1016.3 mb - 0.00 in0.0 mm 0.00 in0.0 mm
03:22 PM 53.4°F11.9°C 38.1°F3.4°C 56% 5.6 mph N9.0 kmh N 9.8 mph15.8 kmh 29.99 in1015.6 mb - 0.00 in0.0 mm 0.00 in0.0 mm
03:27 PM 53.2°F11.8°C 37.6°F3.1°C 55% 5.1 mph N8.2 kmh N 9.6 mph15.4 kmh 29.99 in1015.6 mb - 0.00 in0.0 mm 0.00 in0.0 mm
03:32 PM 53.2°F11.8°C 37.9°F3.3°C 56% 4.7 mph N7.6 kmh N 4.7 mph7.6 kmh 29.99 in1015.6 mb - 0.00 in0.0 mm 0.00 in0.0 mm
03:37 PM 53.2°F11.8°C 37.6°F3.1°C 55% 5.6 mph E9.0 kmh E 9.8 mph15.8 kmh 29.99 in1015.6 mb - 0.00 in0.0 mm 0.00 in0.0 mm
03:42 PM 53.1°F11.7°C 37.4°F3.0°C 55% 4.9 mph NE7.9 kmh NE 8.5 mph13.7 kmh 29.99 in1015.6 mb - 0.00 in0.0 mm 0.00 in0.0 mm
03:47 PM 52.9°F11.6°C 37.2°F2.9°C 55% 6.7 mph E10.8 kmh E 11.2 mph18.0 kmh 29.99 in1015.6 mb - 0.00 in0.0 mm 0.00 in0.0 mm
03:52 PM 52.9°F11.6°C 37.2°F2.9°C 55% 6.0 mph ENE9.7 kmh ENE 10.1 mph16.3 kmh 29.99 in1015.6 mb - 0.00 in0.0 mm 0.00 in0.0 mm
03:57 PM 52.9°F11.6°C 37.2°F2.9°C 55% 6.7 mph NE10.8 kmh NE 10.7 mph17.2 kmh 29.99 in1015.6 mb - 0.00 in0.0 mm 0.00 in0.0 mm
04:02 PM 52.9°F11.6°C 37.2°F2.9°C 55% 5.6 mph E9.0 kmh E 10.5 mph16.9 kmh 29.99 in1015.6 mb - 0.00 in0.0 mm 0.00 in0.0 mm
04:07 PM 53.1°F11.7°C 37.4°F3.0°C 55% 5.4 mph E8.7 kmh E 8.9 mph14.3 kmh 29.99 in1015.6 mb - 0.00 in0.0 mm 0.00 in0.0 mm
04:12 PM 52.9°F11.6°C 37.2°F2.9°C 55% 5.4 mph ENE8.7 kmh ENE 9.8 mph15.8 kmh 29.99 in1015.6 mb - 0.00 in0.0 mm 0.00 in0.0 mm
04:17 PM 52.9°F11.6°C 37.2°F2.9°C 55% 4.3 mph NE6.9 kmh NE 8.1 mph13.0 kmh 29.99 in1015.6 mb - 0.00 in0.0 mm 0.00 in0.0 mm
04:22 PM 52.7°F11.5°C 37.0°F2.8°C 55% 3.8 mph N6.1 kmh N 8.7 mph14.0 kmh 29.99 in1015.6 mb - 0.00 in0.0 mm 0.00 in0.0 mm
04:27 PM 52.7°F11.5°C 37.0°F2.8°C 55% 4.5 mph ESE7.2 kmh ESE 8.1 mph13.0 kmh 29.99 in1015.6 mb - 0.00 in0.0 mm 0.00 in0.0 mm
04:32 PM 52.5°F11.4°C 36.9°F2.7°C 55% 4.0 mph ENE6.4 kmh ENE 8.3 mph13.4 kmh 29.99 in1015.6 mb - 0.00 in0.0 mm 0.00 in0.0 mm
04:37 PM 52.3°F11.3°C 36.7°F2.6°C 55% 2.7 mph NE4.3 kmh NE 7.2 mph11.6 kmh 29.99 in1015.6 mb - 0.00 in0.0 mm 0.00 in0.0 mm
04:42 PM 52.2°F11.2°C 36.5°F2.5°C 55% 2.9 mph N4.7 kmh N 8.9 mph14.3 kmh 29.99 in1015.6 mb - 0.00 in0.0 mm 0.00 in0.0 mm
04:47 PM 51.8°F11.0°C 36.1°F2.3°C 55% 3.6 mph NE5.8 kmh NE 8.7 mph14.0 kmh 29.99 in1015.6 mb - 0.00 in0.0 mm 0.00 in0.0 mm
04:52 PM 51.4°F10.8°C 35.8°F2.1°C 55% 3.4 mph N5.5 kmh N 9.4 mph15.1 kmh 29.99 in1015.6 mb - 0.00 in0.0 mm 0.00 in0.0 mm
04:57 PM 51.1°F10.6°C 35.4°F1.9°C 55% 6.0 mph NE9.7 kmh NE 6.0 mph9.7 kmh 29.99 in1015.6 mb - 0.00 in0.0 mm 0.00 in0.0 mm
05:02 PM 50.7°F10.4°C 35.2°F1.8°C 55% 6.9 mph N11.1 kmh N 10.7 mph17.2 kmh 29.99 in1015.6 mb - 0.00 in0.0 mm 0.00 in0.0 mm
05:07 PM 50.5°F10.3°C 35.4°F1.9°C 56% 6.5 mph NNE10.5 kmh NNE 10.1 mph16.3 kmh 29.99 in1015.6 mb - 0.00 in0.0 mm 0.00 in0.0 mm
05:12 PM 50.2°F10.1°C 35.1°F1.7°C 56% 5.8 mph NNE9.3 kmh NNE 9.8 mph15.8 kmh 29.99 in1015.6 mb - 0.00 in0.0 mm 0.00 in0.0 mm
05:17 PM 49.6°F9.8°C 34.2°F1.2°C 55% 4.5 mph NE7.2 kmh NE 8.5 mph13.7 kmh 29.99 in1015.6 mb - 0.00 in0.0 mm 0.00 in0.0 mm
05:22 PM 49.1°F9.5°C 34.2°F1.2°C 56% 3.1 mph ENE5.0 kmh ENE 5.4 mph8.7 kmh 29.99 in1015.6 mb - 0.00 in0.0 mm 0.00 in0.0 mm
05:27 PM 48.6°F9.2°C 33.6°F0.9°C 56% 3.6 mph NE5.8 kmh NE 5.8 mph9.3 kmh 29.99 in1015.6 mb - 0.00 in0.0 mm 0.00 in0.0 mm
05:32 PM 48.0°F8.9°C 33.1°F0.6°C 56% 3.1 mph NNE5.0 kmh NNE 6.3 mph10.1 kmh 29.99 in1015.6 mb - 0.00 in0.0 mm 0.00 in0.0 mm
05:37 PM 47.7°F8.7°C 33.3°F0.7°C 57% 2.7 mph N4.3 kmh N 4.7 mph7.6 kmh 29.99 in1015.6 mb - 0.00 in0.0 mm 0.00 in0.0 mm
05:42 PM 47.3°F8.5°C 32.9°F0.5°C 57% 0.9 mph NNE1.4 kmh NNE 4.0 mph6.4 kmh 29.99 in1015.6 mb - 0.00 in0.0 mm 0.00 in0.0 mm
05:47 PM 46.9°F8.3°C 32.9°F0.5°C 58% 2.7 mph N4.3 kmh N 4.5 mph7.2 kmh 29.99 in1015.6 mb - 0.00 in0.0 mm 0.00 in0.0 mm
05:52 PM 46.8°F8.2°C 32.7°F0.4°C 58% 2.0 mph N3.2 kmh N 3.8 mph6.1 kmh 29.96 in1014.6 mb - 0.00 in0.0 mm 0.00 in0.0 mm
05:57 PM 46.4°F8.0°C 32.9°F0.5°C 59% 0.9 mph NNE1.4 kmh NNE 4.0 mph6.4 kmh 29.96 in1014.6 mb - 0.00 in0.0 mm 0.00 in0.0 mm
06:02 PM 46.2°F7.9°C 32.7°F0.4°C 59% 0.7 mph N1.1 kmh N 4.3 mph6.9 kmh 29.96 in1014.6 mb - 0.00 in0.0 mm 0.00 in0.0 mm
06:07 PM 45.9°F7.7°C 32.7°F0.4°C 60% Calm Calm -- 29.99 in1015.6 mb - 0.00 in0.0 mm 0.00 in0.0 mm
06:12 PM 45.5°F7.5°C 32.5°F0.3°C 60% Calm Calm -- 29.99 in1015.6 mb - 0.00 in0.0 mm 0.00 in0.0 mm
06:17 PM 45.1°F7.3°C 32.5°F0.3°C 61% Calm Calm -- 29.99 in1015.6 mb - 0.00 in0.0 mm 0.00 in0.0 mm
06:22 PM 45.0°F7.2°C 32.4°F0.2°C 61% Calm Calm -- 29.96 in1014.6 mb - 0.00 in0.0 mm 0.00 in0.0 mm
06:27 PM 44.6°F7.0°C 32.0°F0.0°C 61% Calm Calm -- 29.96 in1014.6 mb - 0.00 in0.0 mm 0.00 in0.0 mm
06:32 PM 44.2°F6.8°C 32.0°F0.0°C 62% Calm Calm -- 29.96 in1014.6 mb - 0.00 in0.0 mm 0.00 in0.0 mm
06:37 PM 43.7°F6.5°C 31.6°F-0.2°C 62% Calm Calm -- 29.99 in1015.6 mb - 0.00 in0.0 mm 0.00 in0.0 mm
06:42 PM 43.5°F6.4°C 31.5°F-0.3°C 62% Calm Calm -- 29.99 in1015.6 mb - 0.00 in0.0 mm 0.00 in0.0 mm
06:47 PM 42.8°F6.0°C 30.7°F-0.7°C 62% Calm Calm -- 29.99 in1015.6 mb - 0.00 in0.0 mm 0.00 in0.0 mm
06:52 PM 42.3°F5.7°C 30.6°F-0.8°C 63% Calm Calm -- 29.99 in1015.6 mb - 0.00 in0.0 mm 0.00 in0.0 mm
06:57 PM 41.7°F5.4°C 30.0°F-1.1°C 63% Calm Calm -- 29.99 in1015.6 mb - 0.00 in0.0 mm 0.00 in0.0 mm
07:02 PM 41.2°F5.1°C 29.7°F-1.3°C 63% Calm Calm -- 29.99 in1015.6 mb - 0.00 in0.0 mm 0.00 in0.0 mm
07:07 PM 40.6°F4.8°C 29.5°F-1.4°C 64% Calm Calm -- 29.99 in1015.6 mb - 0.00 in0.0 mm 0.00 in0.0 mm
07:12 PM 40.3°F4.6°C 29.5°F-1.4°C 65% Calm Calm -- 29.99 in1015.6 mb - 0.00 in0.0 mm 0.00 in0.0 mm
07:17 PM 39.9°F4.4°C 29.8°F-1.2°C 67% Calm Calm -- 29.99 in1015.6 mb - 0.00 in0.0 mm 0.00 in0.0 mm
07:22 PM 39.6°F4.2°C 29.5°F-1.4°C 67% Calm Calm -- 30.01 in1016.3 mb - 0.00 in0.0 mm 0.00 in0.0 mm
07:27 PM 39.4°F4.1°C 29.3°F-1.5°C 67% Calm Calm -- 30.01 in1016.3 mb - 0.00 in0.0 mm 0.00 in0.0 mm
07:32 PM 39.0°F3.9°C 29.3°F-1.5°C 68% Calm Calm -- 30.01 in1016.3 mb - 0.00 in0.0 mm 0.00 in0.0 mm
07:37 PM 38.7°F3.7°C 29.5°F-1.4°C 69% Calm Calm -- 30.01 in1016.3 mb - 0.00 in0.0 mm 0.00 in0.0 mm
07:42 PM 38.3°F3.5°C 28.8°F-1.8°C 68% Calm Calm -- 30.01 in1016.3 mb - 0.00 in0.0 mm 0.00 in0.0 mm
07:47 PM 38.1°F3.4°C 28.6°F-1.9°C 68% Calm Calm -- 30.01 in1016.3 mb - 0.00 in0.0 mm 0.00 in0.0 mm
07:52 PM 37.8°F3.2°C 28.9°F-1.7°C 70% Calm Calm -- 30.01 in1016.3 mb - 0.00 in0.0 mm 0.00 in0.0 mm
07:57 PM 37.6°F3.1°C 28.4°F-2.0°C 69% Calm Calm -- 30.01 in1016.3 mb - 0.00 in0.0 mm 0.00 in0.0 mm
08:02 PM 37.4°F3.0°C 28.2°F-2.1°C 69% Calm Calm -- 30.01 in1016.3 mb - 0.00 in0.0 mm 0.00 in0.0 mm
08:07 PM 37.2°F2.9°C 28.8°F-1.8°C 71% Calm Calm -- 30.01 in1016.3 mb - 0.00 in0.0 mm 0.00 in0.0 mm
08:12 PM 37.0°F2.8°C 28.9°F-1.7°C 72% Calm Calm -- 30.01 in1016.3 mb - 0.00 in0.0 mm 0.00 in0.0 mm
08:17 PM 36.7°F2.6°C 28.6°F-1.9°C 72% Calm Calm -- 30.01 in1016.3 mb - 0.00 in0.0 mm 0.00 in0.0 mm
08:22 PM 36.9°F2.7°C 29.3°F-1.5°C 74% Calm Calm -- 30.01 in1016.3 mb - 0.00 in0.0 mm 0.00 in0.0 mm
08:27 PM 37.0°F2.8°C 29.5°F-1.4°C 74% 0.2 mph WSW0.3 kmh WSW 1.3 mph2.1 kmh 30.01 in1016.3 mb - 0.00 in0.0 mm 0.00 in0.0 mm
08:32 PM 37.0°F2.8°C 29.5°F-1.4°C 74% Calm Calm -- 30.01 in1016.3 mb - 0.00 in0.0 mm 0.00 in0.0 mm
08:37 PM 37.0°F2.8°C 29.8°F-1.2°C 75% Calm Calm -- 30.04 in1017.3 mb - 0.00 in0.0 mm 0.00 in0.0 mm
08:42 PM 36.9°F2.7°C 29.7°F-1.3°C 75% Calm Calm -- 30.04 in1017.3 mb - 0.00 in0.0 mm 0.00 in0.0 mm
08:47 PM 36.9°F2.7°C 29.7°F-1.3°C 75% Calm Calm -- 30.04 in1017.3 mb - 0.00 in0.0 mm 0.00 in0.0 mm
08:52 PM 36.7°F2.6°C 29.5°F-1.4°C 75% Calm Calm -- 30.04 in1017.3 mb - 0.00 in0.0 mm 0.00 in0.0 mm
08:57 PM 36.3°F2.4°C 29.1°F-1.6°C 75% Calm Calm -- 30.04 in1017.3 mb - 0.00 in0.0 mm 0.00 in0.0 mm
09:02 PM 36.1°F2.3°C 28.9°F-1.7°C 75% Calm Calm -- 30.04 in1017.3 mb - 0.00 in0.0 mm 0.00 in0.0 mm
09:07 PM 36.0°F2.2°C 28.8°F-1.8°C 75% Calm Calm -- 30.04 in1017.3 mb - 0.00 in0.0 mm 0.00 in0.0 mm
09:12 PM 35.8°F2.1°C 28.6°F-1.9°C 75% Calm Calm -- 30.04 in1017.3 mb - 0.00 in0.0 mm 0.00 in0.0 mm
09:17 PM 35.6°F2.0°C 28.4°F-2.0°C 75% Calm Calm -- 30.04 in1017.3 mb - 0.00 in0.0 mm 0.00 in0.0 mm
09:22 PM 35.2°F1.8°C 28.2°F-2.1°C 75% Calm Calm -- 30.04 in1017.3 mb - 0.00 in0.0 mm 0.00 in0.0 mm
09:27 PM 35.1°F1.7°C 28.0°F-2.2°C 75% Calm Calm -- 30.04 in1017.3 mb - 0.00 in0.0 mm 0.00 in0.0 mm
09:32 PM 35.1°F1.7°C 28.2°F-2.1°C 76% Calm Calm -- 30.04 in1017.3 mb - 0.00 in0.0 mm 0.00 in0.0 mm
09:37 PM 34.9°F1.6°C 28.0°F-2.2°C 76% Calm Calm -- 30.04 in1017.3 mb - 0.00 in0.0 mm 0.00 in0.0 mm
09:42 PM 34.7°F1.5°C 27.9°F-2.3°C 76% Calm Calm -- 30.04 in1017.3 mb - 0.00 in0.0 mm 0.00 in0.0 mm
09:47 PM 34.5°F1.4°C 27.7°F-2.4°C 76% Calm Calm -- 30.04 in1017.3 mb - 0.00 in0.0 mm 0.00 in0.0 mm
09:52 PM 34.5°F1.4°C 27.7°F-2.4°C 76% Calm Calm -- 30.07 in1018.3 mb - 0.00 in0.0 mm 0.00 in0.0 mm
09:57 PM 34.5°F1.4°C 27.7°F-2.4°C 76% Calm Calm -- 30.07 in1018.3 mb - 0.00 in0.0 mm 0.00 in0.0 mm
10:02 PM 34.3°F1.3°C 28.2°F-2.1°C 78% Calm Calm -- 30.07 in1018.3 mb - 0.00 in0.0 mm 0.00 in0.0 mm
10:07 PM 34.2°F1.2°C 27.7°F-2.4°C 77% Calm Calm -- 30.04 in1017.3 mb - 0.00 in0.0 mm 0.00 in0.0 mm
10:12 PM 34.2°F1.2°C 27.7°F-2.4°C 77% Calm Calm -- 30.04 in1017.3 mb - 0.00 in0.0 mm 0.00 in0.0 mm
10:17 PM 34.2°F1.2°C 27.7°F-2.4°C 77% Calm Calm -- 30.04 in1017.3 mb - 0.00 in0.0 mm 0.00 in0.0 mm
10:22 PM 34.2°F1.2°C 28.0°F-2.2°C 78% Calm Calm -- 30.04 in1017.3 mb - 0.00 in0.0 mm 0.00 in0.0 mm
10:27 PM 34.2°F1.2°C 28.0°F-2.2°C 78% Calm Calm -- 30.04 in1017.3 mb - 0.00 in0.0 mm 0.00 in0.0 mm
10:32 PM 34.2°F1.2°C 27.7°F-2.4°C 77% Calm Calm -- 30.04 in1017.3 mb - 0.00 in0.0 mm 0.00 in0.0 mm
10:37 PM 34.0°F1.1°C 27.5°F-2.5°C 77% Calm Calm -- 30.04 in1017.3 mb - 0.00 in0.0 mm 0.00 in0.0 mm
10:42 PM 33.8°F1.0°C 27.3°F-2.6°C 77% Calm Calm -- 30.04 in1017.3 mb - 0.00 in0.0 mm 0.00 in0.0 mm
10:47 PM 33.8°F1.0°C 27.3°F-2.6°C 77% Calm Calm -- 30.04 in1017.3 mb - 0.00 in0.0 mm 0.00 in0.0 mm
10:52 PM 33.6°F0.9°C 27.1°F-2.7°C 77% Calm Calm -- 30.04 in1017.3 mb - 0.00 in0.0 mm 0.00 in0.0 mm
10:57 PM 33.4°F0.8°C 27.0°F-2.8°C 77% Calm Calm -- 30.04 in1017.3 mb - 0.00 in0.0 mm 0.00 in0.0 mm
11:02 PM 33.3°F0.7°C 26.8°F-2.9°C 77% Calm Calm -- 30.04 in1017.3 mb - 0.00 in0.0 mm 0.00 in0.0 mm
11:07 PM 33.3°F0.7°C 26.8°F-2.9°C 77% Calm Calm -- 30.01 in1016.3 mb - 0.00 in0.0 mm 0.00 in0.0 mm
11:12 PM 33.3°F0.7°C 26.8°F-2.9°C 77% Calm Calm -- 30.01 in1016.3 mb - 0.00 in0.0 mm 0.00 in0.0 mm
11:17 PM 33.1°F0.6°C 27.0°F-2.8°C 78% Calm Calm -- 30.01 in1016.3 mb - 0.00 in0.0 mm 0.00 in0.0 mm
11:22 PM 32.9°F0.5°C 26.8°F-2.9°C 78% Calm Calm -- 30.01 in1016.3 mb - 0.00 in0.0 mm 0.00 in0.0 mm
11:27 PM 32.9°F0.5°C 26.8°F-2.9°C 78% Calm Calm -- 30.01 in1016.3 mb - 0.00 in0.0 mm 0.00 in0.0 mm
11:32 PM 32.9°F0.5°C 26.8°F-2.9°C 78% Calm Calm -- 30.01 in1016.3 mb - 0.00 in0.0 mm 0.00 in0.0 mm
11:37 PM 32.7°F0.4°C 26.6°F-3.0°C 78% Calm Calm -- 30.01 in1016.3 mb - 0.00 in0.0 mm 0.00 in0.0 mm
11:42 PM 32.7°F0.4°C 26.6°F-3.0°C 78% Calm Calm -- 30.01 in1016.3 mb - 0.00 in0.0 mm 0.00 in0.0 mm
11:47 PM 32.7°F0.4°C 26.6°F-3.0°C 78% Calm Calm -- 30.01 in1016.3 mb - 0.00 in0.0 mm 0.00 in0.0 mm
11:52 PM 32.5°F0.3°C 26.4°F-3.1°C 78% Calm Calm -- 30.01 in1016.3 mb - 0.00 in0.0 mm 0.00 in0.0 mm
11:57 PM 32.5°F0.3°C 26.4°F-3.1°C 78% Calm Calm -- 30.01 in1016.3 mb - 0.00 in0.0 mm 0.00 in0.0 mm